Time;durP1;ratioP1;P1;durP2;ratioP2;P2;SDS_P1;SDS_P2;PMS_P1;PMS_P2;Temp;Humidity;BMP_temperature;BMP_pressure;BME280_temperature;BME280_humidity;BME280_pressure;Samples;Min_cycle;Max_cycle;Signal;HPM_P1;HPM_P2
2023/12/12 00:01:22;;;;;;;6.47;2.55;;;33.60;96.10;;;;;;5059384;28;20471;-69
2023/12/12 00:03:49;;;;;;;7.63;1.90;;;33.50;95.60;;;;;;5058006;28;20181;-69
2023/12/12 00:06:17;;;;;;;7.00;2.13;;;33.50;94.90;;;;;;5064116;28;20020;-68
2023/12/12 00:08:44;;;;;;;6.32;1.77;;;33.20;94.70;;;;;;5068033;28;20043;-69
2023/12/12 00:11:11;;;;;;;7.78;1.95;;;32.90;95.60;;;;;;5061789;28;20020;-68
2023/12/12 00:13:38;;;;;;;5.68;2.05;;;32.60;95.70;;;;;;5061617;28;20036;-69
2023/12/12 00:16:07;;;;;;;6.50;1.90;;;32.50;96.10;;;;;;5059319;28;20024;-69
2023/12/12 00:18:35;;;;;;;8.70;1.92;;;32.40;95.20;;;;;;5054756;28;20055;-68
2023/12/12 00:21:03;;;;;;;6.80;2.53;;;32.30;95.10;;;;;;5062847;28;20017;-70
2023/12/12 00:23:30;;;;;;;8.60;2.45;;;32.10;95.80;;;;;;5061270;28;20172;-69
2023/12/12 00:25:58;;;;;;;8.57;2.20;;;31.70;96.60;;;;;;5055008;28;20029;-69
2023/12/12 00:28:28;;;;;;;5.30;1.73;;;31.70;96.50;;;;;;5062302;28;20028;-69
2023/12/12 00:30:55;;;;;;;7.60;1.85;;;31.60;96.70;;;;;;5054281;28;20028;-69
2023/12/12 00:33:22;;;;;;;8.45;2.28;;;31.60;96.30;;;;;;5057104;28;20040;-69
2023/12/12 00:35:49;;;;;;;9.98;2.65;;;31.80;95.90;;;;;;5056114;28;20403;-70
2023/12/12 00:38:16;;;;;;;5.00;2.08;;;32.30;95.90;;;;;;5059033;28;20028;-69
2023/12/12 00:40:56;;;;;;;6.80;2.35;;;32.70;95.70;;;;;;5057166;28;20039;-69
2023/12/12 00:43:26;;;;;;;6.80;2.80;;;32.90;95.40;;;;;;5059407;28;20427;-68
2023/12/12 00:45:53;;;;;;;7.65;2.60;;;33.30;94.70;;;;;;5059429;28;20031;-71
2023/12/12 00:48:21;;;;;;;5.70;1.80;;;33.80;94.40;;;;;;5053156;28;20029;-68
2023/12/12 00:50:48;;;;;;;6.90;1.95;;;34.10;92.80;;;;;;5058965;28;20025;-70
2023/12/12 00:53:15;;;;;;;6.55;1.75;;;33.30;94.00;;;;;;5065978;28;20036;-69
2023/12/12 00:55:42;;;;;;;5.93;1.80;;;33.40;93.80;;;;;;5059602;28;20025;-68
2023/12/12 00:58:10;;;;;;;6.03;1.98;;;33.30;94.30;;;;;;5055239;28;20025;-68
2023/12/12 01:00:37;;;;;;;8.35;2.40;;;33.20;94.00;;;;;;5062766;28;20622;-72
2023/12/12 01:03:04;;;;;;;7.43;2.33;;;33.10;93.40;;;;;;5058593;28;20048;-70
2023/12/12 01:05:31;;;;;;;7.28;2.03;;;32.90;94.00;;;;;;5063044;28;20020;-75
2023/12/12 01:07:58;;;;;;;5.20;2.08;;;33.10;93.60;;;;;;5054475;28;20028;-71
2023/12/12 01:10:25;;;;;;;5.30;1.60;;;33.90;93.80;;;;;;5055589;28;20400;-72
2023/12/12 01:12:52;;;;;;;4.43;1.58;;;34.70;93.70;;;;;;5054956;28;20503;-68
2023/12/12 01:15:19;;;;;;;5.88;1.90;;;35.60;93.20;;;;;;5056698;28;20020;-70
2023/12/12 01:17:46;;;;;;;9.50;2.42;;;36.00;92.80;;;;;;4354990;28;10000735;-71
2023/12/12 01:20:13;;;;;;;4.90;1.63;;;36.50;92.30;;;;;;5056141;28;20342;-72
2023/12/12 01:22:40;;;;;;;5.50;1.65;;;36.50;91.80;;;;;;5062948;28;20500;-68
2023/12/12 01:25:08;;;;;;;5.00;1.80;;;36.60;91.00;;;;;;5054995;28;20107;-68
2023/12/12 01:27:35;;;;;;;4.03;1.60;;;36.80;89.90;;;;;;5056913;28;20041;-69
2023/12/12 01:30:02;;;;;;;13.32;9.27;;;37.00;90.70;;;;;;5059764;28;20032;-70
2023/12/12 01:32:30;;;;;;;6.95;2.00;;;37.50;90.90;;;;;;5045748;28;20085;-68
2023/12/12 01:34:57;;;;;;;7.47;2.97;;;37.90;90.70;;;;;;5051753;28;20503;-68
2023/12/12 01:37:24;;;;;;;5.43;1.65;;;37.30;90.40;;;;;;5054822;28;20063;-71
2023/12/12 01:39:51;;;;;;;5.38;1.50;;;37.60;90.20;;;;;;5049364;28;20031;-68
2023/12/12 01:42:18;;;;;;;9.00;2.17;;;37.90;88.90;;;;;;5048370;28;20071;-72
2023/12/12 01:44:45;;;;;;;3.70;1.60;;;37.80;89.30;;;;;;5052498;28;20534;-70
2023/12/12 01:47:12;;;;;;;5.60;1.77;;;37.20;90.20;;;;;;5053522;28;20020;-72
2023/12/12 01:49:40;;;;;;;4.90;1.55;;;37.40;90.70;;;;;;5050338;28;20560;-71
2023/12/12 01:52:08;;;;;;;4.18;1.95;;;37.90;90.70;;;;;;5051020;28;20456;-70
2023/12/12 01:54:39;;;;;;;3.40;1.60;;;38.10;90.10;;;;;;5054725;28;20061;-67
2023/12/12 01:57:06;;;;;;;;;;;36.90;89.20;;;;;;5053682;28;20039;-69
2023/12/12 01:59:34;;;;;;;4.95;1.70;;;36.00;89.30;;;;;;5058496;28;19965;-70
2023/12/12 02:02:02;;;;;;;5.20;1.60;;;35.30;90.70;;;;;;5053077;28;20090;-71
2023/12/12 02:04:29;;;;;;;5.38;1.70;;;35.50;89.70;;;;;;5052199;28;20024;-75
2023/12/12 02:06:57;;;;;;;6.55;1.90;;;36.40;90.30;;;;;;5054909;28;20051;-68
2023/12/12 02:09:27;;;;;;;4.22;1.38;;;37.00;89.40;;;;;;5053594;28;20099;-68
2023/12/12 02:11:54;;;;;;;5.32;1.80;;;37.80;89.70;;;;;;5050741;28;20024;-68
2023/12/12 02:14:21;;;;;;;4.82;1.60;;;38.30;89.10;;;;;;5048600;28;20056;-73
2023/12/12 02:16:48;;;;;;;4.30;1.33;;;38.40;85.40;;;;;;5058753;28;20115;-73
2023/12/12 02:19:17;;;;;;;6.95;1.90;;;38.50;87.70;;;;;;5048778;28;20098;-72
2023/12/12 02:21:44;;;;;;;4.20;1.55;;;38.40;86.40;;;;;;5049863;28;20051;-70
2023/12/12 02:24:11;;;;;;;7.50;1.77;;;38.50;85.30;;;;;;5047817;28;20464;-71
2023/12/12 02:26:39;;;;;;;9.00;2.05;;;38.50;85.40;;;;;;5051698;28;20329;-73
2023/12/12 02:29:06;;;;;;;6.22;2.15;;;38.50;85.70;;;;;;5059080;28;20024;-68
2023/12/12 02:31:33;;;;;;;5.10;1.90;;;37.90;85.90;;;;;;5050558;28;20016;-73
2023/12/12 02:34:00;;;;;;;4.95;1.52;;;36.80;87.20;;;;;;5052346;28;20485;-68
2023/12/12 02:36:27;;;;;;;7.07;1.90;;;36.60;87.30;;;;;;5053461;28;20112;-68
2023/12/12 02:38:54;;;;;;;5.28;1.70;;;36.20;88.50;;;;;;5049409;28;20206;-69
2023/12/12 02:41:21;;;;;;;5.30;1.42;;;36.50;89.00;;;;;;5050020;28;20020;-68
2023/12/12 02:43:48;;;;;;;6.10;2.13;;;36.90;89.80;;;;;;5056591;28;20067;-69
2023/12/12 02:46:16;;;;;;;3.83;2.47;;;37.90;86.20;;;;;;5054377;28;20036;-69
2023/12/12 02:48:43;;;;;;;5.88;1.63;;;38.30;84.80;;;;;;5050789;28;20048;-67
2023/12/12 02:51:10;;;;;;;4.70;1.80;;;38.30;83.50;;;;;;5049441;28;20058;-74
2023/12/12 02:53:37;;;;;;;5.43;1.70;;;37.80;86.20;;;;;;5048658;28;20775;-67
2023/12/12 02:56:04;;;;;;;6.20;2.00;;;38.20;84.60;;;;;;5057450;28;20035;-75
2023/12/12 02:58:31;;;;;;;6.68;1.98;;;38.30;83.50;;;;;;5052035;28;20036;-74
2023/12/12 03:00:58;;;;;;;6.22;1.90;;;37.80;85.40;;;;;;5051598;28;20021;-68
2023/12/12 03:03:26;;;;;;;5.00;1.73;;;37.70;85.20;;;;;;5052874;28;20033;-69
2023/12/12 03:05:53;;;;;;;5.55;1.85;;;37.90;87.60;;;;;;5057626;28;20033;-68
2023/12/12 03:08:20;;;;;;;4.47;1.92;;;37.90;84.70;;;;;;5058658;28;20044;-68
2023/12/12 03:10:47;;;;;;;7.50;2.55;;;38.00;87.20;;;;;;5062058;28;20115;-77
2023/12/12 03:13:14;;;;;;;7.68;1.90;;;38.50;85.00;;;;;;5055594;28;20086;-68
2023/12/12 03:15:42;;;;;;;7.88;1.92;;;38.60;84.70;;;;;;5057649;28;20085;-76
2023/12/12 03:18:09;;;;;;;5.07;1.42;;;37.70;85.70;;;;;;5059531;28;20057;-69
2023/12/12 03:20:36;;;;;;;6.05;2.03;;;37.90;86.60;;;;;;5054473;28;20028;-69
2023/12/12 03:23:03;;;;;;;5.70;2.00;;;38.60;84.50;;;;;;5056561;28;20039;-74
2023/12/12 03:25:30;;;;;;;3.78;1.77;;;38.50;83.30;;;;;;5055444;28;20048;-70
2023/12/12 03:27:57;;;;;;;4.00;1.75;;;37.70;83.80;;;;;;5056643;28;20454;-72
2023/12/12 03:30:24;;;;;;;6.13;1.48;;;38.30;84.20;;;;;;5049434;28;20072;-68
2023/12/12 03:32:51;;;;;;;5.55;2.13;;;38.00;84.40;;;;;;5056006;28;20391;-68
2023/12/12 03:35:18;;;;;;;5.07;2.25;;;38.20;84.20;;;;;;5049381;28;20029;-69
2023/12/12 03:37:45;;;;;;;6.63;2.30;;;37.80;84.10;;;;;;5057152;28;20028;-68
2023/12/12 03:40:13;;;;;;;4.88;1.90;;;38.00;85.40;;;;;;5061404;28;20021;-69
2023/12/12 03:42:40;;;;;;;3.80;1.63;;;37.40;85.10;;;;;;5059760;28;20044;-70
2023/12/12 03:45:08;;;;;;;4.78;1.73;;;37.00;86.00;;;;;;5058664;28;20688;-69
2023/12/12 03:47:35;;;;;;;6.53;1.85;;;37.00;85.60;;;;;;5051774;28;20459;-68
2023/12/12 03:50:03;;;;;;;5.15;1.92;;;37.40;84.80;;;;;;5059891;28;20377;-74
2023/12/12 03:52:30;;;;;;;8.57;4.60;;;37.70;84.70;;;;;;5051190;28;20023;-69
2023/12/12 03:54:57;;;;;;;5.30;2.03;;;38.40;84.90;;;;;;5060586;28;20028;-70
2023/12/12 03:57:24;;;;;;;7.93;2.13;;;38.60;84.00;;;;;;5056499;28;20040;-71
2023/12/12 03:59:51;;;;;;;3.03;1.30;;;38.60;84.10;;;;;;5055419;28;20036;-71
2023/12/12 04:02:19;;;;;;;4.13;1.67;;;38.90;85.40;;;;;;5051738;28;20055;-70
2023/12/12 04:04:46;;;;;;;4.60;1.50;;;39.20;85.60;;;;;;5054920;28;20028;-69
2023/12/12 04:07:13;;;;;;;4.53;2.20;;;39.00;83.20;;;;;;5057853;28;20024;-70
2023/12/12 04:09:40;;;;;;;6.90;1.83;;;39.00;85.10;;;;;;5058216;28;20016;-69
2023/12/12 04:12:07;;;;;;;6.68;2.10;;;39.10;83.40;;;;;;5063436;28;20683;-76
2023/12/12 04:14:35;;;;;;;9.70;2.25;;;38.20;84.40;;;;;;5051051;28;20023;-69
2023/12/12 04:17:03;;;;;;;6.65;2.25;;;37.40;85.80;;;;;;5050266;28;20025;-68
2023/12/12 04:19:30;;;;;;;6.35;2.00;;;37.70;86.30;;;;;;5059399;28;20078;-69
2023/12/12 04:21:57;;;;;;;4.60;1.80;;;37.70;86.20;;;;;;5047721;28;20059;-71
2023/12/12 04:24:24;;;;;;;5.88;1.77;;;38.20;84.90;;;;;;5055360;28;20582;-72
2023/12/12 04:26:51;;;;;;;8.02;1.92;;;38.20;85.60;;;;;;5056074;28;20044;-70
2023/12/12 04:29:19;;;;;;;5.05;1.60;;;38.30;84.70;;;;;;5050354;28;20024;-73
2023/12/12 04:31:52;;;;;;;4.75;1.58;;;38.20;84.80;;;;;;5051491;28;20063;-71
2023/12/12 04:34:20;;;;;;;6.68;1.60;;;38.10;85.30;;;;;;5060542;28;20048;-71
2023/12/12 04:36:47;;;;;;;6.57;2.22;;;38.30;85.90;;;;;;5058468;28;20213;-68
2023/12/12 04:39:18;;;;;;;3.63;1.10;;;38.10;84.50;;;;;;5059179;28;20119;-68
2023/12/12 04:41:45;;;;;;;6.00;1.85;;;37.70;86.20;;;;;;5058144;28;20154;-69
2023/12/12 04:44:13;;;;;;;6.90;2.05;;;37.80;84.00;;;;;;5057742;28;20028;-68
2023/12/12 04:46:40;;;;;;;5.55;1.92;;;36.60;85.70;;;;;;5056992;28;20086;-73
2023/12/12 04:49:07;;;;;;;3.78;1.50;;;36.40;86.80;;;;;;5057036;28;20368;-74
2023/12/12 04:51:34;;;;;;;8.02;1.77;;;37.10;84.90;;;;;;5058781;28;20024;-67
2023/12/12 04:54:01;;;;;;;5.85;1.77;;;37.10;85.00;;;;;;5057694;28;20031;-68
2023/12/12 04:56:28;;;;;;;8.75;1.90;;;37.30;85.40;;;;;;5059742;28;20028;-67
2023/12/12 04:58:55;;;;;;;3.63;1.50;;;37.50;85.00;;;;;;5057411;28;20035;-67
2023/12/12 05:01:23;;;;;;;5.25;1.75;;;37.90;85.50;;;;;;5055622;28;20054;-71
2023/12/12 05:03:50;;;;;;;7.85;2.00;;;37.70;84.70;;;;;;5053186;28;20164;-66
2023/12/12 05:06:17;;;;;;;6.53;2.10;;;38.10;83.40;;;;;;5056022;28;20487;-73
2023/12/12 05:08:45;;;;;;;4.60;1.52;;;38.20;83.90;;;;;;5056080;28;20052;-73
2023/12/12 05:11:15;;;;;;;3.83;1.65;;;38.00;82.80;;;;;;5058021;28;20068;-72
2023/12/12 05:13:42;;;;;;;6.70;1.73;;;37.80;85.00;;;;;;5057212;28;20024;-68
2023/12/12 05:16:10;;;;;;;4.35;2.15;;;38.00;84.50;;;;;;5056559;28;20195;-72
2023/12/12 05:18:37;;;;;;;5.32;1.58;;;37.90;82.40;;;;;;5058026;28;20331;-71
2023/12/12 05:21:04;;;;;;;4.93;1.80;;;36.90;84.00;;;;;;5057494;28;20031;-69
2023/12/12 05:23:31;;;;;;;4.00;1.50;;;36.90;84.50;;;;;;5053595;28;20123;-68
2023/12/12 05:25:59;;;;;;;6.38;1.70;;;36.30;84.40;;;;;;5058815;28;20028;-70
2023/12/12 05:28:26;;;;;;;3.97;1.40;;;36.20;84.70;;;;;;5054749;28;21355;-74
2023/12/12 05:30:53;;;;;;;4.90;1.60;;;36.60;86.20;;;;;;5053603;28;20028;-70
2023/12/12 05:33:20;;;;;;;6.03;1.55;;;36.70;83.80;;;;;;5049040;28;20577;-70
2023/12/12 05:35:48;;;;;;;6.90;1.90;;;36.30;83.80;;;;;;5055592;28;20231;-75
2023/12/12 05:38:15;;;;;;;5.97;1.60;;;36.50;84.10;;;;;;5057003;28;20020;-70
2023/12/12 05:40:42;;;;;;;5.68;1.45;;;36.40;85.50;;;;;;5049450;28;20427;-75
2023/12/12 05:43:09;;;;;;;7.00;1.58;;;36.70;84.20;;;;;;5057659;28;20029;-75
2023/12/12 05:45:37;;;;;;;5.60;1.80;;;37.20;83.70;;;;;;5055928;28;20028;-68
2023/12/12 05:48:05;;;;;;;3.38;1.50;;;36.80;82.80;;;;;;5056042;28;20113;-68
2023/12/12 05:50:32;;;;;;;3.70;1.70;;;36.90;82.70;;;;;;5055250;28;20789;-67
2023/12/12 05:52:59;;;;;;;4.53;1.65;;;36.60;82.70;;;;;;5060971;28;20063;-68
2023/12/12 05:55:28;;;;;;;8.63;1.80;;;36.80;83.00;;;;;;5056722;28;20108;-67
2023/12/12 05:57:55;;;;;;;5.90;1.75;;;36.60;83.10;;;;;;5055412;28;20024;-74
2023/12/12 06:00:22;;;;;;;3.88;1.35;;;36.90;83.00;;;;;;5057023;28;20033;-67
2023/12/12 06:02:49;;;;;;;4.10;1.48;;;36.70;81.70;;;;;;5056440;28;20036;-71
2023/12/12 06:05:17;;;;;;;4.10;1.33;;;36.80;82.90;;;;;;5057507;28;20517;-69
2023/12/12 06:07:44;;;;;;;6.50;1.45;;;36.70;82.30;;;;;;5057816;28;20055;-71
2023/12/12 06:10:11;;;;;;;2.85;1.13;;;36.50;82.40;;;;;;5056232;28;20028;-70
2023/12/12 06:12:38;;;;;;;4.10;1.50;;;36.00;82.70;;;;;;5057361;28;20024;-70
2023/12/12 06:15:09;;;;;;;4.43;1.73;;;36.70;82.50;;;;;;5056473;28;20024;-74
2023/12/12 06:17:36;;;;;;;4.63;1.63;;;36.20;82.30;;;;;;5055502;28;20020;-71
2023/12/12 06:20:04;;;;;;;4.90;1.73;;;35.90;82.70;;;;;;5056844;28;20116;-75
2023/12/12 06:22:31;;;;;;;4.28;1.35;;;36.50;83.50;;;;;;5059278;28;20486;-69
2023/12/12 06:24:59;;;;;;;2.83;1.30;;;36.90;83.00;;;;;;5053529;28;20024;-69
2023/12/12 06:27:26;;;;;;;5.70;1.70;;;36.80;81.70;;;;;;5056297;28;20162;-68
2023/12/12 06:29:53;;;;;;;6.07;1.77;;;36.60;82.70;;;;;;5055531;28;20743;-67
2023/12/12 06:32:22;;;;;;;4.95;2.65;;;37.00;81.90;;;;;;5057620;28;20063;-73
2023/12/12 06:34:49;;;;;;;4.70;1.63;;;38.00;81.30;;;;;;5057696;28;20098;-69
2023/12/12 06:37:16;;;;;;;4.00;1.77;;;38.30;80.50;;;;;;5053031;28;20499;-71
2023/12/12 06:39:43;;;;;;;6.22;1.40;;;38.40;80.50;;;;;;5056004;28;20352;-68
2023/12/12 06:42:11;;;;;;;5.80;1.70;;;38.40;80.40;;;;;;5054955;28;20034;-73
2023/12/12 06:44:38;;;;;;;4.22;1.48;;;38.40;80.00;;;;;;5056129;28;20062;-73
2023/12/12 06:47:05;;;;;;;3.92;1.45;;;36.80;82.10;;;;;;5056183;28;20612;-68
2023/12/12 06:49:32;;;;;;;5.07;1.60;;;36.30;82.30;;;;;;5056839;28;20081;-71
2023/12/12 06:52:01;;;;;;;5.32;1.50;;;36.50;82.30;;;;;;5055847;28;20043;-70
2023/12/12 06:54:28;;;;;;;3.30;1.23;;;37.30;82.10;;;;;;5056861;28;20020;-70
2023/12/12 06:56:56;;;;;;;7.80;1.55;;;37.30;82.00;;;;;;5056138;28;20104;-70
2023/12/12 06:59:23;;;;;;;3.65;1.25;;;36.90;83.30;;;;;;5055559;28;20269;-73
2023/12/12 07:01:51;;;;;;;5.03;1.63;;;37.00;83.50;;;;;;5054527;28;20047;-71
2023/12/12 07:04:18;;;;;;;4.55;1.40;;;37.80;82.20;;;;;;5058062;28;20028;-73
2023/12/12 07:06:45;;;;;;;4.80;1.55;;;38.20;82.00;;;;;;5056367;28;20423;-67
2023/12/12 07:09:12;;;;;;;4.93;1.60;;;38.30;81.80;;;;;;5055471;28;20025;-69
2023/12/12 07:11:40;;;;;;;3.85;1.20;;;38.20;83.90;;;;;;5056958;28;20056;-69
2023/12/12 07:14:08;;;;;;;4.90;1.42;;;37.90;82.50;;;;;;5054843;28;20386;-69
2023/12/12 07:16:35;;;;;;;4.50;1.50;;;37.10;85.50;;;;;;5048731;28;20426;-72
2023/12/12 07:19:02;;;;;;;5.38;1.80;;;36.70;86.10;;;;;;5054210;28;20475;-71
2023/12/12 07:21:42;;;;;;;4.70;1.58;;;36.70;85.00;;;;;;5053248;28;20028;-72
2023/12/12 07:24:10;;;;;;;4.32;1.30;;;37.10;84.90;;;;;;5056974;28;20032;-70
2023/12/12 07:26:44;;;;;;;4.72;1.30;;;38.00;83.40;;;;;;5055598;28;20313;-67
2023/12/12 07:29:12;;;;;;;4.35;1.55;;;38.20;83.30;;;;;;5056115;28;20115;-69
2023/12/12 07:31:39;;;;;;;7.78;1.60;;;38.40;82.80;;;;;;5051889;28;20416;-69
2023/12/12 07:34:06;;;;;;;5.07;1.48;;;38.30;81.80;;;;;;5056714;28;20029;-67
2023/12/12 07:36:34;;;;;;;3.92;1.50;;;37.40;83.30;;;;;;5056849;28;20073;-68
2023/12/12 07:39:02;;;;;;;7.68;1.80;;;37.40;83.00;;;;;;5054346;28;20031;-71
2023/12/12 07:41:29;;;;;;;2.92;1.30;;;37.30;83.50;;;;;;5055091;28;20056;-66
2023/12/12 07:43:56;;;;;;;5.88;1.65;;;37.50;83.00;;;;;;5055053;28;20033;-70
2023/12/12 07:46:23;;;;;;;5.20;1.50;;;37.70;82.90;;;;;;5054715;28;20487;-69
2023/12/12 07:48:51;;;;;;;5.57;2.05;;;37.70;82.70;;;;;;5056580;28;20115;-70
2023/12/12 07:51:20;;;;;;;6.53;1.75;;;37.10;83.50;;;;;;5056571;28;20479;-72
2023/12/12 07:53:47;;;;;;;4.97;1.33;;;35.80;85.20;;;;;;5058187;28;20089;-70
2023/12/12 07:56:14;;;;;;;5.65;1.55;;;35.30;85.80;;;;;;5059040;28;20376;-69
2023/12/12 07:58:41;;;;;;;4.57;1.40;;;35.40;85.50;;;;;;5056481;28;20422;-73
2023/12/12 08:01:08;;;;;;;4.70;2.75;;;35.30;85.60;;;;;;5055368;28;20050;-71
2023/12/12 08:03:35;;;;;;;4.45;2.42;;;35.30;86.00;;;;;;5054555;28;20494;-69
2023/12/12 08:06:03;;;;;;;6.47;1.95;;;35.10;87.00;;;;;;5052858;28;20471;-69
2023/12/12 08:08:31;;;;;;;7.47;2.20;;;34.90;87.10;;;;;;5055154;28;20033;-69
2023/12/12 08:11:00;;;;;;;3.33;1.33;;;34.30;88.20;;;;;;5053701;28;20517;-73
2023/12/12 08:13:28;;;;;;;5.30;1.45;;;33.50;89.10;;;;;;5054828;28;20028;-69
2023/12/12 08:15:55;;;;;;;3.92;1.35;;;32.10;91.00;;;;;;5051487;28;20116;-68
2023/12/12 08:18:22;;;;;;;4.88;1.67;;;31.20;92.10;;;;;;5052556;28;20052;-68
2023/12/12 08:20:49;;;;;;;8.93;1.83;;;30.60;92.60;;;;;;5051488;28;20037;-71
2023/12/12 08:23:16;;;;;;;5.28;1.45;;;30.20;92.90;;;;;;5052026;28;20090;-70
2023/12/12 08:25:43;;;;;;;5.82;1.75;;;29.70;93.00;;;;;;5053482;28;20118;-69
2023/12/12 08:28:10;;;;;;;6.97;1.52;;;29.10;94.20;;;;;;5052473;28;20012;-68
2023/12/12 08:30:38;;;;;;;4.00;1.30;;;28.70;95.20;;;;;;5051404;28;20107;-69
2023/12/12 08:33:05;;;;;;;5.53;1.63;;;28.40;96.00;;;;;;5049510;28;20109;-67
2023/12/12 08:35:32;;;;;;;4.78;2.00;;;28.10;96.50;;;;;;5051312;28;20387;-68
2023/12/12 08:37:59;;;;;;;7.28;4.28;;;27.80;97.40;;;;;;5049560;28;20093;-67
2023/12/12 08:40:26;;;;;;;5.68;1.42;;;27.40;98.00;;;;;;5048028;28;20090;-67
2023/12/12 08:42:53;;;;;;;7.53;1.77;;;27.10;98.70;;;;;;5050250;28;20055;-68
2023/12/12 08:45:20;;;;;;;4.82;1.58;;;27.00;99.30;;;;;;5051499;28;20021;-71
2023/12/12 08:47:47;;;;;;;4.75;1.90;;;26.70;99.90;;;;;;5050760;28;20430;-68
2023/12/12 08:50:14;;;;;;;4.72;1.65;;;26.60;99.90;;;;;;5050684;28;20020;-68
2023/12/12 08:52:41;;;;;;;7.78;1.85;;;26.30;99.90;;;;;;5052881;28;20024;-65
2023/12/12 08:55:12;;;;;;;7.20;1.88;;;26.10;99.90;;;;;;5053831;28;20077;-71
2023/12/12 08:57:40;;;;;;;8.15;2.40;;;25.80;99.90;;;;;;5051813;28;20056;-69
2023/12/12 09:00:13;;;;;;;6.45;1.52;;;25.70;99.90;;;;;;5055786;28;20032;-65
2023/12/12 09:02:40;;;;;;;8.80;1.98;;;25.50;99.90;;;;;;5051561;28;20040;-66
2023/12/12 09:05:08;;;;;;;6.55;1.70;;;25.40;99.90;;;;;;5051455;28;20055;-65
2023/12/12 09:07:35;;;;;;;8.68;1.98;;;25.30;99.90;;;;;;5052358;28;20403;-65
2023/12/12 09:10:06;;;;;;;6.40;2.35;;;25.10;99.90;;;;;;5049278;28;20385;-65
2023/12/12 09:12:35;;;;;;;7.63;2.92;;;25.00;99.90;;;;;;5053117;28;20137;-66
2023/12/12 09:15:02;;;;;;;6.97;3.42;;;24.90;99.90;;;;;;5049199;28;20728;-72
2023/12/12 09:17:30;;;;;;;5.80;2.25;;;24.90;99.90;;;;;;5053700;28;20432;-71
2023/12/12 09:19:57;;;;;;;6.43;2.30;;;24.70;99.90;;;;;;5054018;28;20127;-67
2023/12/12 09:22:24;;;;;;;6.18;1.95;;;24.80;99.90;;;;;;5055092;28;20029;-71
2023/12/12 09:24:51;;;;;;;4.60;1.58;;;24.70;99.90;;;;;;5055568;28;20406;-66
2023/12/12 09:27:18;;;;;;;8.60;2.15;;;24.60;99.90;;;;;;5054135;28;20034;-66
2023/12/12 09:29:45;;;;;;;5.18;1.67;;;24.60;99.90;;;;;;5055597;28;20028;-65
2023/12/12 09:32:13;;;;;;;7.45;1.95;;;24.60;99.90;;;;;;5041206;28;20101;-66
2023/12/12 09:34:40;;;;;;;7.43;1.90;;;24.50;99.90;;;;;;5040090;22;20058;-66
2023/12/12 09:37:07;;;;;;;6.47;1.83;;;24.30;99.90;;;;;;4991191;28;20029;-67
2023/12/12 09:39:34;;;;;;;7.45;1.85;;;24.20;99.90;;;;;;4992261;28;20029;-66
2023/12/12 09:42:03;;;;;;;8.98;1.83;;;24.20;99.90;;;;;;4992359;28;20037;-64
2023/12/12 09:44:35;;;;;;;7.10;1.65;;;24.00;99.90;;;;;;4991228;28;20034;-74
2023/12/12 09:47:03;;;;;;;4.82;1.98;;;24.00;99.90;;;;;;4985808;28;20033;-65
2023/12/12 09:49:33;;;;;;;7.45;1.85;;;23.90;99.90;;;;;;4982706;28;20034;-70
2023/12/12 09:52:02;;;;;;;6.63;1.77;;;23.80;99.90;;;;;;4979455;28;20030;-65
2023/12/12 09:54:30;;;;;;;6.32;1.52;;;23.70;99.90;;;;;;4978449;28;20019;-69
2023/12/12 09:56:57;;;;;;;5.72;1.70;;;23.70;99.90;;;;;;4985188;28;20037;-68
2023/12/12 09:59:24;;;;;;;5.30;1.63;;;23.60;99.90;;;;;;4981960;28;20042;-69
2023/12/12 10:01:55;;;;;;;3.30;1.40;;;23.50;99.90;;;;;;4987704;28;20389;-68
2023/12/12 10:04:23;;;;;;;6.57;1.88;;;23.50;99.90;;;;;;4986741;28;20555;-71
2023/12/12 10:06:54;;;;;;;6.60;1.90;;;23.50;99.90;;;;;;4983336;28;20246;-71
2023/12/12 10:09:21;;;;;;;4.40;1.70;;;23.30;99.90;;;;;;4984504;28;20789;-66
2023/12/12 10:11:48;;;;;;;7.40;1.77;;;23.30;99.90;;;;;;4987515;28;20045;-66
2023/12/12 10:14:34;;;;;;;5.65;1.98;;;23.30;99.90;;;;;;4978532;28;20422;-69
2023/12/12 10:17:05;;;;;;;6.40;2.20;;;23.20;99.90;;;;;;4982348;28;20034;-68
2023/12/12 10:19:33;;;;;;;5.15;1.45;;;23.10;99.90;;;;;;5000418;28;20026;-69
2023/12/12 10:22:04;;;;;;;8.65;1.90;;;23.10;99.90;;;;;;4982480;28;20045;-71
2023/12/12 10:24:32;;;;;;;5.63;2.27;;;23.00;99.90;;;;;;4983368;28;20038;-74
2023/12/12 10:26:59;;;;;;;5.95;2.13;;;23.00;99.90;;;;;;4987228;28;20507;-69
2023/12/12 10:29:26;;;;;;;8.95;1.60;;;22.90;99.90;;;;;;4985538;28;20332;-72
2023/12/12 10:31:56;;;;;;;9.15;2.45;;;22.90;99.90;;;;;;4984338;28;20238;-67
2023/12/12 10:34:27;;;;;;;7.05;1.55;;;22.80;99.90;;;;;;4990748;28;20104;-68
2023/12/12 10:36:54;;;;;;;7.22;2.47;;;22.70;99.90;;;;;;4987636;28;20117;-68
2023/12/12 10:39:22;;;;;;;8.85;1.98;;;22.70;99.90;;;;;;4984037;28;20089;-66
2023/12/12 10:41:56;;;;;;;6.80;1.90;;;22.70;99.90;;;;;;4991050;28;20493;-71
2023/12/12 10:44:33;;;;;;;4.13;1.58;;;22.60;99.90;;;;;;4993263;28;20085;-67
2023/12/12 10:47:03;;;;;;;6.55;1.60;;;22.60;99.90;;;;;;4991646;28;20025;-72
2023/12/12 10:49:32;;;;;;;7.53;1.73;;;22.50;99.90;;;;;;4991977;28;20062;-73
2023/12/12 10:52:05;;;;;;;8.30;2.10;;;22.50;99.90;;;;;;4986931;28;20045;-67
2023/12/12 10:54:37;;;;;;;6.15;1.75;;;22.50;99.90;;;;;;4978604;28;20027;-71
2023/12/12 10:57:04;;;;;;;6.77;2.20;;;22.50;99.90;;;;;;4978899;28;20030;-71
2023/12/12 10:59:34;;;;;;;7.20;2.10;;;22.40;99.90;;;;;;4981372;28;20050;-72
2023/12/12 11:02:02;;;;;;;9.32;2.10;;;22.30;99.90;;;;;;4978726;28;20041;-72
2023/12/12 11:04:30;;;;;;;9.20;3.83;;;22.30;99.90;;;;;;4978587;28;20497;-72
2023/12/12 11:06:57;;;;;;;5.93;3.78;;;22.30;99.90;;;;;;4980479;28;20053;-72
2023/12/12 11:09:25;;;;;;;7.55;1.90;;;22.20;99.90;;;;;;4980287;28;20027;-72
2023/12/12 11:11:54;;;;;;;5.47;1.60;;;22.20;99.90;;;;;;4981382;28;20487;-74
2023/12/12 11:14:24;;;;;;;5.40;1.63;;;22.10;99.90;;;;;;4979811;28;20359;-67
2023/12/12 11:17:00;;;;;;;12.18;2.25;;;22.10;99.90;;;;;;4979763;28;20026;-66
2023/12/12 11:19:27;;;;;;;6.72;2.10;;;22.00;99.90;;;;;;4978996;28;20034;-66
2023/12/12 11:21:55;;;;;;;5.72;1.85;;;22.00;99.90;;;;;;4980462;28;20030;-72
2023/12/12 11:24:41;;;;;;;6.03;2.22;;;21.90;99.90;;;;;;4979730;28;20864;-72
2023/12/12 11:27:09;;;;;;;7.25;1.88;;;21.90;99.90;;;;;;4981221;28;20421;-70
2023/12/12 11:29:40;;;;;;;5.07;1.63;;;21.90;99.90;;;;;;4984043;28;20555;-66
2023/12/12 11:32:08;;;;;;;9.85;1.80;;;22.00;99.90;;;;;;4982907;28;20062;-70
2023/12/12 11:34:41;;;;;;;4.50;1.52;;;22.00;99.90;;;;;;4983146;28;20038;-65
2023/12/12 11:37:08;;;;;;;4.60;1.70;;;22.00;99.90;;;;;;4982322;28;20062;-68
2023/12/12 11:39:44;;;;;;;6.65;1.83;;;22.10;99.90;;;;;;4979859;28;20030;-68
2023/12/12 11:42:24;;;;;;;4.38;1.75;;;22.10;99.90;;;;;;4978582;28;20373;-70
2023/12/12 11:44:58;;;;;;;4.82;1.88;;;22.10;99.90;;;;;;4980108;28;20033;-67
2023/12/12 11:47:30;;;;;;;5.47;1.75;;;22.10;99.90;;;;;;4982760;28;20192;-70
2023/12/12 11:50:16;;;;;;;6.78;1.40;;;22.10;99.90;;;;;;4981303;28;20026;-67
2023/12/12 11:52:45;;;;;;;6.68;2.08;;;22.00;99.90;;;;;;4982422;28;20034;-72
2023/12/12 11:55:28;;;;;;;6.72;1.63;;;22.00;99.90;;;;;;4983352;28;20050;-69
2023/12/12 11:58:00;;;;;;;10.45;2.10;;;22.00;99.90;;;;;;4983299;28;20026;-65
2023/12/12 12:00:32;;;;;;;7.38;1.95;;;22.00;99.90;;;;;;4983626;28;20037;-70
2023/12/12 12:03:00;;;;;;;7.78;1.70;;;22.00;99.90;;;;;;4984373;28;20031;-69
2023/12/12 12:05:27;;;;;;;7.78;1.60;;;21.90;99.90;;;;;;4982444;28;20018;-67
2023/12/12 12:07:55;;;;;;;6.75;1.75;;;21.80;99.90;;;;;;4983877;28;20030;-70
2023/12/12 12:10:24;;;;;;;7.40;1.75;;;21.80;99.90;;;;;;4984107;28;20030;-69
2023/12/12 12:12:59;;;;;;;6.80;1.85;;;21.80;99.90;;;;;;4982455;28;20472;-69
2023/12/12 12:15:26;;;;;;;4.38;1.40;;;21.80;99.90;;;;;;4985115;28;20061;-70
2023/12/12 12:17:56;;;;;;;8.18;1.73;;;21.60;99.90;;;;;;4982173;28;20031;-71
2023/12/12 12:20:23;;;;;;;4.00;1.58;;;21.70;99.90;;;;;;4983180;28;20109;-68
2023/12/12 12:22:50;;;;;;;7.07;1.73;;;21.70;99.90;;;;;;4983242;28;20040;-70
2023/12/12 12:25:26;;;;;;;4.80;1.70;;;21.70;99.90;;;;;;4983476;28;20763;-70
2023/12/12 12:27:55;;;;;;;7.72;1.80;;;21.60;99.90;;;;;;4982514;28;20077;-72
2023/12/12 12:30:23;;;;;;;4.68;2.30;;;21.60;99.90;;;;;;4982235;28;20029;-67
2023/12/12 12:33:09;;;;;;;6.60;1.73;;;21.50;99.90;;;;;;4980633;28;20046;-73
2023/12/12 12:35:37;;;;;;;10.48;2.72;;;21.50;99.90;;;;;;4981924;28;20038;-68
2023/12/12 12:38:24;;;;;;;6.97;2.05;;;21.40;99.90;;;;;;4982605;28;20026;-73
2023/12/12 12:40:51;;;;;;;3.90;1.70;;;21.40;99.90;;;;;;4982225;28;20077;-70
2023/12/12 12:43:19;;;;;;;8.13;2.10;;;21.50;99.90;;;;;;4981843;28;20030;-68
2023/12/12 12:45:46;;;;;;;6.70;1.80;;;21.40;99.90;;;;;;4983288;28;20147;-65
2023/12/12 12:48:14;;;;;;;7.55;2.08;;;21.30;99.90;;;;;;4982122;28;20121;-73
2023/12/12 12:50:43;;;;;;;8.75;2.13;;;21.20;99.90;;;;;;4982975;28;20328;-66
2023/12/12 12:53:10;;;;;;;7.55;1.98;;;21.20;99.90;;;;;;4982555;28;20425;-68